createdAt,value
2022-08-24T00:00:23.294Z,64.24
2022-08-24T00:02:51.996Z,64.16
2022-08-24T00:05:22.733Z,64.09
2022-08-24T00:07:50.737Z,64.26
2022-08-24T00:10:43.975Z,65.18
2022-08-24T00:13:16.732Z,64.68
2022-08-24T00:15:49.991Z,65.53
2022-08-24T00:18:18.260Z,65.24
2022-08-24T00:20:46.433Z,65.56
2022-08-24T00:23:14.484Z,65.68
2022-08-24T00:25:42.934Z,65.90
2022-08-24T00:28:10.036Z,65.84
2022-08-24T00:30:38.040Z,65.71
2022-08-24T00:33:05.992Z,66.17
2022-08-24T00:38:27.775Z,66.74
2022-08-24T00:41:02.686Z,66.90
2022-08-24T00:43:55.250Z,67.72
2022-08-24T00:46:42.289Z,67.27
2022-08-24T00:49:35.700Z,67.17
2022-08-24T00:52:29.518Z,67.14
2022-08-24T00:55:07.858Z,67.81
2022-08-24T00:57:46.770Z,67.38
2022-08-24T01:00:24.169Z,68.01
2022-08-24T01:02:55.782Z,68.04
2022-08-24T01:05:24.419Z,68.20
2022-08-24T01:07:51.990Z,68.62
2022-08-24T01:10:25.197Z,68.24
2022-08-24T01:13:00.693Z,68.73
2022-08-24T01:15:31.395Z,68.78
2022-08-24T01:18:19.476Z,68.31
2022-08-24T01:21:22.323Z,69.72
2022-08-24T01:23:59.650Z,70.09
2022-08-24T01:26:35.452Z,69.33
2022-08-24T01:29:18.143Z,68.64
2022-08-24T01:31:48.114Z,70.50
2022-08-24T01:34:15.940Z,69.36
2022-08-24T01:36:48.040Z,69.31
2022-08-24T01:39:50.821Z,70.13
2022-08-24T01:42:24.087Z,69.87
2022-08-24T01:44:53.967Z,70.86
2022-08-24T01:47:22.311Z,70.39
2022-08-24T01:49:50.009Z,70.03
2022-08-24T01:58:47.006Z,71.18
2022-08-24T02:01:43.946Z,72.58
2022-08-24T02:07:04.360Z,71.74
2022-08-24T02:09:38.943Z,72.40
2022-08-24T02:12:08.254Z,71.57
2022-08-24T02:14:36.579Z,71.59
2022-08-24T02:17:10.562Z,71.81
2022-08-24T02:19:38.304Z,72.58
2022-08-24T02:22:08.137Z,72.63
2022-08-24T02:25:03.247Z,73.54
2022-08-24T02:27:57.008Z,73.62
2022-08-24T02:30:55.047Z,72.63
2022-08-24T02:33:24.659Z,74.16
2022-08-24T02:35:53.330Z,73.30
2022-08-24T02:38:27.145Z,74.42
2022-08-24T02:40:54.065Z,73.54
2022-08-24T02:43:21.917Z,74.29
2022-08-24T02:45:50.671Z,74.94
2022-08-24T02:48:20.445Z,75.21
2022-08-24T02:50:50.479Z,74.44
2022-08-24T02:53:23.962Z,74.71
2022-08-24T02:56:22.467Z,74.76
2022-08-24T02:58:50.207Z,73.71
2022-08-24T03:01:23.886Z,74.61
2022-08-24T03:04:25.596Z,74.28
2022-08-24T03:06:53.906Z,75.53
2022-08-24T03:09:23.495Z,73.95
2022-08-24T03:11:57.074Z,74.19
2022-08-24T03:14:24.646Z,72.91
2022-08-24T03:16:56.985Z,73.36
2022-08-24T03:19:23.938Z,72.99
2022-08-24T03:21:53.639Z,74.95
2022-08-24T03:24:28.232Z,75.76
2022-08-24T03:27:01.000Z,75.09
2022-08-24T03:29:33.681Z,76.03
2022-08-24T03:32:07.101Z,76.71
2022-08-24T03:34:41.373Z,76.19
2022-08-24T03:37:10.051Z,74.76
2022-08-24T03:39:37.983Z,74.40
2022-08-24T03:44:57.937Z,75.57
2022-08-24T03:47:32.963Z,76.19
2022-08-24T03:50:27.930Z,75.37
2022-08-24T03:52:55.936Z,77.05
2022-08-24T03:55:24.000Z,75.21
2022-08-24T03:57:58.159Z,75.27
2022-08-24T04:00:25.978Z,74.86
2022-08-24T04:02:59.966Z,76.15
2022-08-24T04:05:51.968Z,77.04
2022-08-24T04:08:24.313Z,74.91
2022-08-24T04:13:51.717Z,77.83
2022-08-24T04:16:21.387Z,76.84
2022-08-24T04:18:54.243Z,77.92
2022-08-24T04:21:25.632Z,75.84
2022-08-24T04:23:54.777Z,77.67
2022-08-24T04:26:44.210Z,78.30
2022-08-24T04:32:12.109Z,77.80
2022-08-24T04:34:44.909Z,77.76
2022-08-24T04:40:10.661Z,79.99
2022-08-24T04:42:45.936Z,80.21
2022-08-24T04:45:15.999Z,79.19
2022-08-24T04:47:45.610Z,81.24
2022-08-24T04:50:14.044Z,81.80
2022-08-24T04:55:47.317Z,81.39
2022-08-24T04:58:19.992Z,81.65
2022-08-24T05:00:53.119Z,81.03
2022-08-24T05:03:19.924Z,81.86
2022-08-24T05:05:50.252Z,82.06
2022-08-24T05:08:23.957Z,80.92
2022-08-24T05:10:52.107Z,80.52
2022-08-24T05:13:21.962Z,82.84
2022-08-24T05:15:55.044Z,81.98
2022-08-24T05:18:21.917Z,82.43
2022-08-24T05:20:49.940Z,83.07
2022-08-24T05:23:19.786Z,83.12
2022-08-24T05:25:48.702Z,83.37
2022-08-24T05:28:18.461Z,83.13
2022-08-24T05:30:46.445Z,83.15
2022-08-24T05:33:23.881Z,83.27
2022-08-24T05:35:51.909Z,83.46
2022-08-24T05:38:19.939Z,82.34
2022-08-24T05:40:47.907Z,82.76
2022-08-24T05:43:15.953Z,83.19
2022-08-24T05:45:46.013Z,82.38
2022-08-24T05:49:04.909Z,82.86
2022-08-24T05:51:36.715Z,81.91
2022-08-24T05:54:14.170Z,81.20
2022-08-24T05:57:05.078Z,80.87
2022-08-24T05:59:52.503Z,81.25
2022-08-24T06:02:25.522Z,81.06
2022-08-24T06:04:53.905Z,82.10
2022-08-24T06:07:22.227Z,81.88
2022-08-24T06:09:55.959Z,82.23
2022-08-24T06:12:34.972Z,81.03
2022-08-24T06:15:08.426Z,81.10
2022-08-24T06:17:36.646Z,81.81
2022-08-24T06:20:04.594Z,80.69
2022-08-24T06:22:31.986Z,81.39
2022-08-24T06:25:19.542Z,81.02
2022-08-24T06:27:52.958Z,80.59
2022-08-24T06:30:22.188Z,81.43
2022-08-24T06:33:05.075Z,80.68
2022-08-24T06:35:47.256Z,80.04
2022-08-24T06:38:16.589Z,80.69
2022-08-24T06:40:52.082Z,80.45
2022-08-24T06:43:22.890Z,80.53
2022-08-24T06:46:16.888Z,80.33
2022-08-24T06:48:49.148Z,80.29
2022-08-24T06:51:19.035Z,79.91
2022-08-24T06:53:48.769Z,80.09
2022-08-24T06:56:22.523Z,79.83
2022-08-24T06:58:50.007Z,79.57
2022-08-24T07:01:28.026Z,79.61
2022-08-24T07:03:56.785Z,79.16
2022-08-24T07:06:42.019Z,78.64
2022-08-24T07:09:10.220Z,79.43
2022-08-24T07:11:40.271Z,78.67
2022-08-24T07:14:08.258Z,77.64
2022-08-24T07:16:37.999Z,77.55
2022-08-24T07:19:06.461Z,76.95
2022-08-24T07:21:34.323Z,76.95
2022-08-24T07:24:03.357Z,76.71
2022-08-24T07:26:34.010Z,75.98
2022-08-24T07:29:05.615Z,75.98
2022-08-24T07:31:41.387Z,75.59
2022-08-24T07:34:20.336Z,75.31
2022-08-24T07:36:48.348Z,75.09
2022-08-24T07:39:16.137Z,75.31
2022-08-24T07:42:11.906Z,75.10
2022-08-24T07:44:38.983Z,74.20
2022-08-24T07:47:36.945Z,74.69
2022-08-24T07:50:25.996Z,73.84
2022-08-24T07:52:58.167Z,73.34
2022-08-24T07:55:26.054Z,72.38
2022-08-24T07:57:53.995Z,73.46
2022-08-24T08:03:14.174Z,72.52
2022-08-24T08:05:43.110Z,73.00
2022-08-24T08:11:05.569Z,71.37
2022-08-24T08:13:34.867Z,70.76
2022-08-24T08:16:08.876Z,69.86
2022-08-24T08:18:45.628Z,70.63
2022-08-24T08:21:38.499Z,69.71
2022-08-24T08:24:21.214Z,69.68
2022-08-24T08:30:14.171Z,68.72
2022-08-24T08:32:48.135Z,68.60
2022-08-24T08:35:21.026Z,67.13
2022-08-24T08:37:55.463Z,66.63
2022-08-24T08:40:55.442Z,65.75
2022-08-24T08:44:01.298Z,66.03
2022-08-24T08:47:12.499Z,65.06
2022-08-24T08:50:13.214Z,64.52
2022-08-24T08:53:09.851Z,63.34
2022-08-24T08:56:37.660Z,64.62
2022-08-24T08:59:40.983Z,64.33
2022-08-24T09:02:30.306Z,63.86
2022-08-24T09:22:27.254Z,59.05
2022-08-24T09:30:48.867Z,57.99
2022-08-24T09:33:36.356Z,59.73
2022-08-24T09:54:12.562Z,57.20
2022-08-24T10:03:58.795Z,55.35
2022-08-24T10:07:13.106Z,53.39
2022-08-24T10:09:55.639Z,53.17
2022-08-24T10:12:59.976Z,51.78
2022-08-24T10:16:09.429Z,52.11
2022-08-24T10:18:43.600Z,52.30
2022-08-24T10:21:32.144Z,51.92
2022-08-24T10:24:34.967Z,53.17
2022-08-24T10:30:56.844Z,52.55
2022-08-24T10:34:07.571Z,54.55
2022-08-24T10:36:54.526Z,51.69
2022-08-24T10:53:04.038Z,49.17
2022-08-24T12:12:28.836Z,48.04
2022-08-24T12:30:01.613Z,48.07
2022-08-24T12:32:53.884Z,48.80
2022-08-24T12:36:09.363Z,50.13
2022-08-24T12:39:21.392Z,48.84
2022-08-24T12:42:23.724Z,50.06
2022-08-24T13:00:29.585Z,50.40
2022-08-24T13:03:04.463Z,48.52
2022-08-24T13:05:46.183Z,48.87
2022-08-24T13:08:35.808Z,48.58
2022-08-24T13:11:30.048Z,48.94
2022-08-24T13:13:57.812Z,48.03
2022-08-24T13:16:56.448Z,47.31
2022-08-24T13:19:23.892Z,48.15
2022-08-24T13:22:10.003Z,47.65
2022-08-24T13:24:44.691Z,48.25
2022-08-24T13:27:11.831Z,48.70
2022-08-24T13:30:00.496Z,47.28
2022-08-24T13:32:44.276Z,45.97
2022-08-24T13:35:41.458Z,46.75
2022-08-24T13:38:34.253Z,46.70
2022-08-24T13:44:53.125Z,46.77
2022-08-24T13:47:24.043Z,46.32
2022-08-24T13:50:37.953Z,46.71
2022-08-24T13:58:05.293Z,45.44
2022-08-24T14:05:23.508Z,44.42
2022-08-24T14:08:26.927Z,43.87
2022-08-24T14:11:46.817Z,44.38
2022-08-24T14:14:46.089Z,45.28
2022-08-24T14:17:55.185Z,43.63
2022-08-24T14:20:43.757Z,45.22
2022-08-24T14:23:17.368Z,44.44
2022-08-24T14:25:49.050Z,45.46
2022-08-24T14:28:44.217Z,44.78
2022-08-24T14:31:27.960Z,43.12
2022-08-24T14:34:08.265Z,43.40
2022-08-24T14:37:05.395Z,42.43
2022-08-24T14:39:54.522Z,42.34
2022-08-24T14:42:37.363Z,41.77
2022-08-24T14:45:31.655Z,42.40
2022-08-24T14:48:24.943Z,41.70
2022-08-24T14:53:58.091Z,43.16
2022-08-24T14:56:59.375Z,41.29
2022-08-24T15:00:02.427Z,42.00
2022-08-24T15:02:29.806Z,41.58
2022-08-24T15:05:21.258Z,40.94
2022-08-24T15:08:02.631Z,42.07
2022-08-24T15:10:39.149Z,43.76
2022-08-24T15:13:28.586Z,43.27
2022-08-24T15:16:03.532Z,41.15
2022-08-24T15:19:09.079Z,42.36
2022-08-24T15:22:03.769Z,43.23
2022-08-24T15:24:43.218Z,44.08
2022-08-24T15:27:25.370Z,43.98
2022-08-24T15:29:57.682Z,43.17
2022-08-24T15:32:55.080Z,44.94
2022-08-24T15:35:35.002Z,43.81
2022-08-24T15:38:23.988Z,43.66
2022-08-24T15:58:54.727Z,44.39
2022-08-24T16:01:53.669Z,44.35
2022-08-24T16:15:25.969Z,45.16
2022-08-24T16:18:22.096Z,44.76
2022-08-24T16:38:34.276Z,45.12
2022-08-24T16:41:28.096Z,45.14
2022-08-24T16:44:09.075Z,45.42
2022-08-24T16:46:39.497Z,44.77
2022-08-24T16:52:00.823Z,45.91
2022-08-24T16:54:39.859Z,44.39
2022-08-24T16:58:09.393Z,44.66
2022-08-24T17:08:52.292Z,45.53
2022-08-24T18:04:56.098Z,51.73
2022-08-24T18:07:52.635Z,52.20
2022-08-24T18:10:30.043Z,51.54
2022-08-24T18:12:59.755Z,52.70
2022-08-24T18:15:38.367Z,52.85
2022-08-24T18:18:09.597Z,53.00
2022-08-24T18:20:40.708Z,53.02
2022-08-24T18:28:38.179Z,56.26
2022-08-24T18:31:10.413Z,57.24
2022-08-24T18:34:03.843Z,58.77
2022-08-24T18:36:32.202Z,59.82
2022-08-24T18:39:03.859Z,60.49
2022-08-24T18:41:43.393Z,61.70
2022-08-24T18:44:18.645Z,62.31
2022-08-24T18:46:46.158Z,62.83
2022-08-24T18:49:14.424Z,63.84
2022-08-24T18:51:48.356Z,63.63
2022-08-24T18:54:19.256Z,63.87
2022-08-24T18:57:18.224Z,63.92
2022-08-24T18:59:46.896Z,63.75
2022-08-24T19:02:33.221Z,64.12
2022-08-24T19:05:07.627Z,65.02
2022-08-24T19:07:40.239Z,64.89
2022-08-24T19:10:10.138Z,65.69
2022-08-24T19:12:42.673Z,65.38
2022-08-24T19:15:29.119Z,65.44
2022-08-24T19:18:02.448Z,65.82
2022-08-24T19:20:30.111Z,65.74
2022-08-24T19:23:04.975Z,67.06
2022-08-24T19:25:34.488Z,66.54
2022-08-24T19:28:02.400Z,66.45
2022-08-24T19:33:27.085Z,66.59
2022-08-24T19:35:53.992Z,67.02
2022-08-24T19:38:25.746Z,67.19
2022-08-24T19:40:57.082Z,67.18
2022-08-24T19:43:25.987Z,67.32
2022-08-24T19:46:02.295Z,67.19
2022-08-24T19:48:34.058Z,68.13
2022-08-24T19:51:07.801Z,68.22
2022-08-24T19:53:37.463Z,68.24
2022-08-24T19:56:12.277Z,68.20
2022-08-24T19:58:59.550Z,68.22
2022-08-24T20:01:37.315Z,68.54
2022-08-24T20:04:12.800Z,68.99
2022-08-24T20:06:40.882Z,69.49
2022-08-24T20:09:08.562Z,68.95
2022-08-24T20:11:41.775Z,69.00
2022-08-24T20:14:11.827Z,69.48
2022-08-24T20:17:06.288Z,69.61
2022-08-24T20:19:43.597Z,69.78
2022-08-24T20:22:13.528Z,70.64
2022-08-24T20:24:47.604Z,71.72
2022-08-24T20:27:20.093Z,70.40
2022-08-24T20:30:13.063Z,71.10
2022-08-24T20:32:40.749Z,70.94
2022-08-24T20:35:15.083Z,71.06
2022-08-24T20:43:15.785Z,72.74
2022-08-24T20:45:52.132Z,72.10
2022-08-24T20:53:52.671Z,73.70
2022-08-24T20:56:31.537Z,73.22
2022-08-24T21:29:45.949Z,73.32
2022-08-24T21:32:38.516Z,74.45
2022-08-24T23:20:05.491Z,80.50
2022-08-24T23:23:02.458Z,80.56
2022-08-24T23:25:30.584Z,80.03
2022-08-24T23:30:41.019Z,79.45
2022-08-24T23:33:10.002Z,80.29
2022-08-24T23:41:15.140Z,79.34
2022-08-24T23:51:49.708Z,80.41
2022-08-24T23:54:21.128Z,80.52
2022-08-24T23:56:49.716Z,79.38
2022-08-24T23:59:27.314Z,79.11
